Desert Spring — V7XQ8 — position and weather

sailwx.info

Track history (hours):
 
Tides and Currents Weather Stations Pressure Air Temp Water Temp Dewpoint Dewpoint Depression Visibility Wind Speed Wind Dir Waves Ship Positions

Desert Spring

Last reported at 2016-Jun-03 23:16 UTC. Time now 2016-Jun-29 03:53 UTC.
Position S 30°22' E 030°52'.
Warning: this ship's position is 25 days out of date.

Length 193 m; draft 6.6 m.

Type: Cargo ship. MMSI: 538004547.

Date/timePositionNaut miles runAvg speedWind from/ knotsBaromVisibWave heightAir tempDewpointWater temp
2016-Jun-03 23:16S 30°22' E 030°52'912.2
2016-Jun-03 22:33S 30°14' E 030°57'1111.2
2016-Jun-03 21:33S 30°05' E 031°04'10 9.7
2016-Jun-03 20:33S 29°56' E 031°10'7 7.1
2016-Jun-03 19:33S 29°51' E 031°04'2 1.6
2016-Jun-03 18:33S 29°52' E 031°03'0 0.0
2016-Jun-03 17:33S 29°52' E 031°03'0 0.0
2016-Jun-03 16:33S 29°52' E 031°03'0 0.0
2016-Jun-03 15:33S 29°52' E 031°03'0 0.0
2016-Jun-03 14:30S 29°52' E 031°03'0 0.0
2016-Jun-03 13:33S 29°52' E 031°03'0 0.0
2016-Jun-03 12:33S 29°52' E 031°03'0 0.0
2016-Jun-03 11:33S 29°52' E 031°03'0 0.0
2016-Jun-03 10:33S 29°52' E 031°03'0 0.0
2016-Jun-03 09:33S 29°52' E 031°03'0 0.0
2016-Jun-03 08:33S 29°52' E 031°03'0 0.0
2016-Jun-03 07:33S 29°52' E 031°03'1 1.2
2016-Jun-03 06:33S 29°52' E 031°04'4 3.8
2016-Jun-03 05:33S 29°50' E 031°07'2 1.7
2016-Jun-03 04:33S 29°51' E 031°09'0 0.4
2016-Jun-03 03:33S 29°50' E 031°09'0 0.5
2016-Jun-03 02:33S 29°50' E 031°09'1 0.9
2016-Jun-03 01:33S 29°49' E 031°10'8 7.5
2016-Jun-03 00:33S 29°47' E 031°18'1212.0
2016-Jun-02 23:33S 29°43' E 031°31'1413.7
2016-Jun-02 22:33S 29°41' E 031°47'1414.3
2016-Jun-02 21:33S 29°37' E 032°03'  
Track history (hours):
 
Tides and Currents Weather Stations Pressure Air Temp Water Temp Dewpoint Dewpoint Depression Visibility Wind Speed Wind Dir Waves Ship Positions

Desert Spring

Last reported at 2016-Jun-03 23:16 UTC. Time now 2016-Jun-29 03:53 UTC.
Position S 30°22' E 030°52'.
Warning: this ship's position is 25 days out of date.

Length 193 m; draft 6.6 m.

Type: Cargo ship. MMSI: 538004547.

Date/timePositionNaut miles runAvg speedWind from/ knotsBaromVisibWave heightAir tempDewpointWater temp
2016-Jun-03 23:16S 30°22' E 030°52'912.2
2016-Jun-03 22:33S 30°14' E 030°57'1111.2
2016-Jun-03 21:33S 30°05' E 031°04'10 9.7
2016-Jun-03 20:33S 29°56' E 031°10'7 7.1
2016-Jun-03 19:33S 29°51' E 031°04'2 1.6
2016-Jun-03 18:33S 29°52' E 031°03'0 0.0
2016-Jun-03 17:33S 29°52' E 031°03'0 0.0
2016-Jun-03 16:33S 29°52' E 031°03'0 0.0
2016-Jun-03 15:33S 29°52' E 031°03'0 0.0
2016-Jun-03 14:30S 29°52' E 031°03'0 0.0
2016-Jun-03 13:33S 29°52' E 031°03'0 0.0
2016-Jun-03 12:33S 29°52' E 031°03'0 0.0
2016-Jun-03 11:33S 29°52' E 031°03'0 0.0
2016-Jun-03 10:33S 29°52' E 031°03'0 0.0
2016-Jun-03 09:33S 29°52' E 031°03'0 0.0
2016-Jun-03 08:33S 29°52' E 031°03'0 0.0
2016-Jun-03 07:33S 29°52' E 031°03'1 1.2
2016-Jun-03 06:33S 29°52' E 031°04'4 3.8
2016-Jun-03 05:33S 29°50' E 031°07'2 1.7
2016-Jun-03 04:33S 29°51' E 031°09'0 0.4
2016-Jun-03 03:33S 29°50' E 031°09'0 0.5
2016-Jun-03 02:33S 29°50' E 031°09'1 0.9
2016-Jun-03 01:33S 29°49' E 031°10'8 7.5
2016-Jun-03 00:33S 29°47' E 031°18'1212.0
2016-Jun-02 23:33S 29°43' E 031°31'1413.7
2016-Jun-02 22:33S 29°41' E 031°47'1414.3
2016-Jun-02 21:33S 29°37' E 032°03'  

Dump ship's entire track history